Share

Brokaw, WI

8:05 AM CDT on April 24, 2014 (GMT -0500)
Hawthorn Hills Elementary School (KWIWAUSA4) Elev 1201 ft | 44.96 °N, 89.61 °W | Change Station

Current weather conditions updated 11 seconds ago

Overcast
Overcast
39.7 °F
Feels Like 40 °F
N
0.0
Wind Variable Wind from SE
Gusts 4.0 mph
Sunrise 5:58 AM
Sunset 7:55 PM
Moon Waning Crescent

Today is forecast to be Much Cooler than yesterday. Cloudy with rain.

Pressure 30.02 in
Visibility 10.0 miles
Clouds Overcast 3100 ft
Windchill 40 °F
Dew Point 25 °F
Humidity 55%
Rainfall 0.00 in
Snow Depth Not available.
UV 0 out of 16
Pollen 1.00 out of 12
Air Quality Not available.
Flu Activity Sporadic
METAR KAUW 241254Z AUTO 13008KT 10SM OVC031 04/M06 A2998 RMK AO2 SLP165 T00391061

More Conditions Fewer Conditions

Pressure 30.02 in
Visibility 10.0 miles
Clouds Overcast 3100 ft
Windchill 40 °F
Dew Point 25 °F
Humidity 55%
Rainfall 0.00 in
Snow Depth Not available.
UV 0 out of 16
Pollen 1.00 out of 12
Air Quality Not available.
Flu Activity Sporadic
METAR KAUW 241254Z AUTO 13008KT 10SM OVC031 04/M06 A2998 RMK AO2 SLP165 T00391061

More Conditions Fewer Conditions

10-Day Weather Forecast

Almanac

Astronomy

Apr. 24, 2014 Rise Set
Actual Time 5:58 AM CDT 7:55 PM CDT
Civil Twilight 5:27 AM CDT 8:27 PM CDT
Nautical Twilight 4:48 AM CDT 9:06 PM CDT
Astronomical Twilight 4:06 AM CDT 9:48 PM CDT
Moon 3:23 AM CDT 2:58 PM CDT
Length of Visible Light 15h 00m
Length of Day
13h 56m
Tomorrow will be 2m 52s longer.
Waning Crescent, 26% of the Moon is Illuminated
Today
Waning Crescent
Apr 29
New
May 6
First Quarter
May 14
Full
May 21
Last Quarter

Today's Extremes

State Highs State Lows

Community

  • Stacked
    Stacked
  • clouds approaching Red Sox Nation
    clouds approaching Red Sox Nation
  • Balance
    Balance
  • Citysky
    Citysky
  • Nestled In
    Nestled In

WunderPhotos

Upload Photos

1,704,596 photos uploaded!

Nearby

Snow Depth

Station Depth Elevation
No new snow has been reported.

Coastal Water Temperatures

Place Temperature
No Stations Reporting

Earthquake Activity

City Distance Mag. Time & Date
No recent earthquake activity has been reported nearby.
Minimum magnitude displayed is 2.5.

Nearby Weather Stations

Station Location Temp. Windchill Dew Point Humidity Wind Precip. Elev Updated Type
Hawthorn Hills Elementary School, Wausau, WI 39.7 °F 40 °F 25 °F 55% SE  at  0.0 mph 0.00 in / hr 1201 ft 8:04 AM CDT Rapid Fire
Knopf's House, Weston, WI 38.8 °F 39 °F 23 °F 53% ESE  at  1.7 mph - / hr 1214 ft 8:01 AM CDT Normal
Single Elm tree Farm, Marathon, WI 37.0 °F 29 °F 27 °F 66% ESE  at  13.5 mph - / hr 1424 ft 8:04 AM CDT Normal
Rib Falls Repair, Athens, WI 38.4 °F 33 °F 28 °F 66% ESE  at  7.0 mph 0.00 in / hr 1348 ft 8:04 AM CDT Normal

Show More Stations Show Fewer Stations

What do you think?

We're not finished. Please let us know what you like, what you don't like, and what you are still missing.